createdAt,value
2022-08-26T00:00:03.631Z,0.00
2022-08-26T00:01:03.624Z,0.00
2022-08-26T00:02:03.695Z,0.00
2022-08-26T00:03:03.617Z,0.00
2022-08-26T00:04:03.681Z,0.00
2022-08-26T00:05:03.545Z,0.00
2022-08-26T00:06:03.543Z,0.00
2022-08-26T00:07:03.535Z,0.00
2022-08-26T00:08:03.515Z,0.00
2022-08-26T00:09:03.503Z,0.00
2022-08-26T00:10:03.497Z,0.00
2022-08-26T00:11:03.483Z,0.00
2022-08-26T00:12:03.519Z,0.00
2022-08-26T00:13:03.556Z,0.00
2022-08-26T00:14:03.470Z,0.00
2022-08-26T00:15:03.450Z,0.00
2022-08-26T00:16:03.480Z,0.00
2022-08-26T00:17:03.468Z,0.00
2022-08-26T00:18:03.437Z,0.00
2022-08-26T00:19:03.422Z,0.00
2022-08-26T00:20:03.408Z,0.00
2022-08-26T00:21:06.351Z,0.00
2022-08-26T00:22:03.391Z,0.00
2022-08-26T00:23:03.388Z,0.00
2022-08-26T00:24:03.364Z,0.00
2022-08-26T00:25:03.325Z,0.00
2022-08-26T00:26:03.355Z,0.00
2022-08-26T00:27:03.323Z,0.00
2022-08-26T00:28:03.342Z,0.00
2022-08-26T00:29:03.274Z,0.00
2022-08-26T00:30:03.272Z,0.00
2022-08-26T00:31:03.289Z,0.00
2022-08-26T00:32:03.283Z,0.00
2022-08-26T00:33:03.253Z,0.00
2022-08-26T00:34:03.249Z,0.00
2022-08-26T00:35:03.218Z,0.00
2022-08-26T00:36:03.207Z,0.00
2022-08-26T00:37:03.188Z,0.00
2022-08-26T00:38:03.187Z,0.00
2022-08-26T00:39:03.178Z,0.00
2022-08-26T00:40:05.226Z,0.00
2022-08-26T00:41:03.144Z,0.00
2022-08-26T00:42:03.137Z,0.00
2022-08-26T00:43:03.147Z,0.00
2022-08-26T00:44:03.157Z,0.00
2022-08-26T00:45:03.126Z,0.00
2022-08-26T00:46:03.163Z,0.00
2022-08-26T00:47:03.078Z,0.00
2022-08-26T00:48:03.098Z,0.00
2022-08-26T00:49:03.070Z,0.00
2022-08-26T00:50:03.075Z,0.00
2022-08-26T00:51:03.088Z,0.00
2022-08-26T00:52:03.064Z,0.00
2022-08-26T00:53:03.015Z,0.00
2022-08-26T00:54:03.669Z,0.00
2022-08-26T00:55:03.017Z,0.00
2022-08-26T00:56:02.996Z,0.00
2022-08-26T00:57:03.000Z,0.00
2022-08-26T00:58:02.982Z,0.00
2022-08-26T00:59:02.990Z,0.00
2022-08-26T01:00:02.956Z,0.00
2022-08-26T01:01:02.958Z,0.00
2022-08-26T01:02:03.215Z,0.00
2022-08-26T01:03:02.906Z,0.00
2022-08-26T01:04:02.917Z,0.00
2022-08-26T01:05:03.343Z,0.00
2022-08-26T01:06:02.876Z,0.00
2022-08-26T01:07:02.862Z,0.00
2022-08-26T01:08:03.658Z,0.00
2022-08-26T01:09:02.847Z,0.00
2022-08-26T01:10:02.855Z,0.00
2022-08-26T01:11:02.822Z,0.00
2022-08-26T01:12:02.907Z,0.00
2022-08-26T01:13:02.796Z,0.00
2022-08-26T01:14:02.868Z,0.00
2022-08-26T01:15:02.780Z,0.00
2022-08-26T01:16:02.843Z,0.00
2022-08-26T01:17:02.751Z,0.00
2022-08-26T01:18:02.811Z,0.00
2022-08-26T01:19:02.739Z,0.00
2022-08-26T01:20:02.797Z,0.00
2022-08-26T01:21:02.711Z,0.00
2022-08-26T01:22:02.701Z,0.00
2022-08-26T01:23:03.275Z,0.00
2022-08-26T01:24:02.687Z,0.00
2022-08-26T01:25:03.591Z,0.00
2022-08-26T01:26:02.648Z,0.00
2022-08-26T01:27:02.644Z,0.00
2022-08-26T01:28:02.638Z,0.00
2022-08-26T01:29:03.539Z,0.00
2022-08-26T01:30:02.638Z,0.00
2022-08-26T01:31:02.595Z,0.00
2022-08-26T01:32:02.590Z,0.00
2022-08-26T01:33:02.591Z,0.00
2022-08-26T01:34:02.563Z,0.00
2022-08-26T01:35:02.549Z,0.00
2022-08-26T01:36:02.564Z,0.00
2022-08-26T01:37:02.539Z,0.00
2022-08-26T01:38:02.539Z,0.00
2022-08-26T01:39:02.510Z,0.00
2022-08-26T01:40:02.555Z,0.00
2022-08-26T01:41:02.511Z,0.00
2022-08-26T01:42:03.153Z,0.00
2022-08-26T01:43:02.481Z,0.00
2022-08-26T01:44:02.465Z,0.00
2022-08-26T01:45:02.578Z,0.00
2022-08-26T01:46:02.516Z,0.00
2022-08-26T01:47:02.440Z,0.00
2022-08-26T01:48:02.431Z,0.00
2022-08-26T01:49:02.469Z,0.00
2022-08-26T01:50:02.890Z,0.00
2022-08-26T01:51:02.385Z,0.00
2022-08-26T01:52:02.376Z,0.00
2022-08-26T01:53:02.381Z,0.00
2022-08-26T01:54:02.367Z,0.00
2022-08-26T01:55:02.347Z,0.00
2022-08-26T01:56:02.338Z,0.00
2022-08-26T01:57:02.322Z,0.00
2022-08-26T01:58:02.585Z,0.00
2022-08-26T01:59:02.312Z,0.00
2022-08-26T02:00:02.283Z,0.00
2022-08-26T02:01:02.519Z,0.00
2022-08-26T02:02:03.048Z,0.00
2022-08-26T02:03:02.270Z,0.00
2022-08-26T02:04:02.245Z,0.00
2022-08-26T02:05:02.254Z,0.00
2022-08-26T02:06:02.225Z,0.00
2022-08-26T02:07:02.211Z,0.00
2022-08-26T02:08:02.214Z,0.00
2022-08-26T02:09:02.205Z,0.00
2022-08-26T02:10:02.172Z,0.00
2022-08-26T02:11:02.185Z,0.00
2022-08-26T02:12:02.167Z,0.00
2022-08-26T02:13:02.187Z,0.00
2022-08-26T02:14:02.136Z,0.00
2022-08-26T02:15:02.125Z,0.00
2022-08-26T02:16:02.181Z,0.00
2022-08-26T02:17:02.123Z,0.00
2022-08-26T02:18:02.096Z,0.00
2022-08-26T02:19:02.089Z,0.00
2022-08-26T02:20:02.076Z,0.00
2022-08-26T02:21:02.061Z,0.00
2022-08-26T02:22:02.054Z,0.00
2022-08-26T02:23:02.089Z,0.00
2022-08-26T02:24:02.036Z,0.00
2022-08-26T02:25:02.344Z,0.00
2022-08-26T02:26:02.000Z,0.00
2022-08-26T02:27:02.023Z,0.00
2022-08-26T02:28:02.007Z,0.00
2022-08-26T02:29:01.992Z,0.00
2022-08-26T02:30:01.978Z,0.00
2022-08-26T02:31:02.788Z,0.00
2022-08-26T02:32:02.084Z,0.00
2022-08-26T02:33:02.065Z,0.00
2022-08-26T02:34:01.933Z,0.00
2022-08-26T02:35:01.922Z,0.00
2022-08-26T02:36:01.921Z,0.00
2022-08-26T02:37:01.893Z,0.00
2022-08-26T02:38:01.870Z,0.00
2022-08-26T02:39:01.875Z,0.00
2022-08-26T02:40:01.967Z,0.00
2022-08-26T02:41:01.898Z,0.00
2022-08-26T02:42:01.841Z,0.00
2022-08-26T02:43:01.832Z,0.00
2022-08-26T02:44:01.805Z,0.00
2022-08-26T02:45:01.842Z,0.00
2022-08-26T02:46:02.534Z,0.00
2022-08-26T02:47:01.882Z,0.00
2022-08-26T02:48:01.778Z,0.00
2022-08-26T02:49:01.790Z,0.00
2022-08-26T02:50:01.749Z,0.00
2022-08-26T02:51:01.827Z,0.00
2022-08-26T02:52:02.033Z,0.00
2022-08-26T02:53:01.774Z,0.00
2022-08-26T02:54:01.752Z,0.00
2022-08-26T02:55:01.714Z,0.00
2022-08-26T02:56:01.694Z,0.00
2022-08-26T02:57:01.683Z,0.00
2022-08-26T02:58:01.763Z,0.00
2022-08-26T02:59:01.664Z,0.00
2022-08-26T03:00:01.656Z,0.00
2022-08-26T03:01:01.744Z,0.00
2022-08-26T03:02:01.657Z,0.00
2022-08-26T03:03:01.690Z,0.00
2022-08-26T03:04:01.597Z,0.00
2022-08-26T03:05:02.260Z,0.00
2022-08-26T03:06:01.585Z,0.00
2022-08-26T03:07:01.585Z,0.00
2022-08-26T03:08:01.555Z,0.00
2022-08-26T03:09:01.551Z,0.00
2022-08-26T03:10:01.531Z,0.00
2022-08-26T03:11:01.706Z,0.00
2022-08-26T03:12:01.565Z,0.00
2022-08-26T03:13:01.601Z,0.00
2022-08-26T03:14:01.785Z,0.00
2022-08-26T03:15:01.483Z,0.00
2022-08-26T03:16:01.512Z,0.00
2022-08-26T03:17:01.470Z,0.00
2022-08-26T03:18:01.477Z,0.00
2022-08-26T03:19:01.431Z,0.00
2022-08-26T03:20:01.413Z,0.00
2022-08-26T03:21:01.408Z,0.00
2022-08-26T03:22:01.398Z,0.00
2022-08-26T03:23:01.459Z,0.00
2022-08-26T03:24:01.389Z,0.00
2022-08-26T03:25:01.368Z,0.00
2022-08-26T03:26:01.384Z,0.00
2022-08-26T03:27:01.343Z,0.00
2022-08-26T03:28:01.421Z,0.00
2022-08-26T03:29:01.325Z,0.00
2022-08-26T03:30:01.392Z,0.00
2022-08-26T03:31:01.357Z,0.00
2022-08-26T03:32:01.307Z,0.00
2022-08-26T03:33:01.301Z,0.00
2022-08-26T03:34:01.282Z,0.00
2022-08-26T03:35:01.267Z,0.00
2022-08-26T03:36:01.238Z,0.00
2022-08-26T03:37:01.243Z,0.00
2022-08-26T03:38:01.238Z,0.00
2022-08-26T03:39:01.219Z,0.00
2022-08-26T03:40:01.254Z,0.00
2022-08-26T03:41:01.203Z,0.00
2022-08-26T03:42:01.179Z,0.00
2022-08-26T03:43:01.738Z,0.00
2022-08-26T03:44:01.971Z,4.00
2022-08-26T03:45:01.191Z,4.00
2022-08-26T03:46:01.135Z,0.00
2022-08-26T03:47:01.127Z,0.00
2022-08-26T03:48:01.131Z,4.00
2022-08-26T03:49:01.112Z,0.00
2022-08-26T03:50:01.107Z,4.00
2022-08-26T03:51:01.090Z,4.00
2022-08-26T03:52:01.076Z,4.00
2022-08-26T03:53:01.061Z,8.00
2022-08-26T03:54:01.043Z,4.00
2022-08-26T03:55:01.235Z,8.00
2022-08-26T03:56:01.028Z,8.00
2022-08-26T03:57:01.043Z,8.00
2022-08-26T03:58:01.021Z,8.00
2022-08-26T03:59:01.165Z,12.00
2022-08-26T04:00:00.975Z,12.00
2022-08-26T04:01:00.974Z,16.00
2022-08-26T04:02:01.019Z,16.00
2022-08-26T04:03:01.067Z,16.00
2022-08-26T04:04:01.009Z,20.00
2022-08-26T04:05:00.931Z,24.00
2022-08-26T04:06:00.911Z,24.00
2022-08-26T04:07:00.931Z,28.00
2022-08-26T04:08:00.910Z,28.00
2022-08-26T04:09:00.889Z,32.00
2022-08-26T04:10:00.869Z,36.00
2022-08-26T04:11:00.857Z,36.00
2022-08-26T04:12:00.853Z,40.00
2022-08-26T04:13:00.874Z,44.00
2022-08-26T04:14:00.817Z,44.00
2022-08-26T04:15:00.824Z,52.00
2022-08-26T04:16:00.868Z,52.00
2022-08-26T04:17:00.805Z,56.00
2022-08-26T04:18:00.787Z,60.00
2022-08-26T04:19:00.938Z,60.00
2022-08-26T04:20:00.816Z,68.00
2022-08-26T04:21:01.901Z,72.00
2022-08-26T04:22:00.734Z,76.00
2022-08-26T04:23:00.739Z,80.00
2022-08-26T04:24:00.721Z,84.00
2022-08-26T04:25:00.718Z,84.00
2022-08-26T04:26:00.734Z,92.00
2022-08-26T04:27:00.720Z,96.00
2022-08-26T04:28:00.670Z,100.00
2022-08-26T04:29:00.661Z,100.00
2022-08-26T04:30:00.659Z,108.00
2022-08-26T04:31:00.688Z,112.00
2022-08-26T04:32:00.623Z,116.00
2022-08-26T04:33:00.613Z,120.00
2022-08-26T04:34:00.688Z,124.00
2022-08-26T04:35:00.768Z,128.00
2022-08-26T04:36:00.589Z,132.00
2022-08-26T04:37:00.569Z,136.00
2022-08-26T04:38:00.558Z,140.00
2022-08-26T04:39:00.554Z,148.00
2022-08-26T04:40:00.701Z,148.00
2022-08-26T04:41:00.542Z,156.00
2022-08-26T04:42:00.509Z,156.00
2022-08-26T04:43:00.514Z,164.00
2022-08-26T04:44:00.489Z,168.00
2022-08-26T04:45:00.485Z,168.00
2022-08-26T04:46:00.495Z,172.00
2022-08-26T04:47:00.463Z,176.00
2022-08-26T04:48:00.440Z,180.00
2022-08-26T04:49:00.435Z,188.00
2022-08-26T04:50:00.423Z,188.00
2022-08-26T04:51:00.433Z,196.00
2022-08-26T04:52:00.429Z,200.00
2022-08-26T04:53:00.410Z,200.00
2022-08-26T04:54:00.381Z,208.00
2022-08-26T04:55:00.384Z,212.00
2022-08-26T04:56:00.371Z,216.00
2022-08-26T04:57:00.355Z,220.00
2022-08-26T04:58:00.343Z,228.00
2022-08-26T04:59:00.334Z,236.00
2022-08-26T05:00:00.317Z,240.00
2022-08-26T05:01:00.341Z,248.00
2022-08-26T05:02:00.350Z,260.00
2022-08-26T05:03:00.316Z,264.00
2022-08-26T05:04:00.354Z,268.00
2022-08-26T05:05:00.258Z,272.00
2022-08-26T05:06:00.316Z,276.00
2022-08-26T05:07:02.905Z,284.00
2022-08-26T05:08:00.225Z,288.00
2022-08-26T05:09:00.245Z,292.00
2022-08-26T05:10:00.234Z,292.00
2022-08-26T05:11:00.200Z,296.00
2022-08-26T05:12:00.203Z,304.00
2022-08-26T05:13:00.378Z,308.00
2022-08-26T05:14:02.283Z,308.00
2022-08-26T05:15:00.220Z,308.00
2022-08-26T05:16:01.167Z,312.00
2022-08-26T05:17:00.165Z,316.00
2022-08-26T05:18:00.197Z,320.00
2022-08-26T05:19:00.140Z,324.00
2022-08-26T05:20:00.163Z,328.00
2022-08-26T05:21:00.096Z,332.00
2022-08-26T05:22:00.191Z,332.00
2022-08-26T05:23:00.066Z,332.00
2022-08-26T05:24:00.125Z,332.00
2022-08-26T05:25:00.124Z,328.00
2022-08-26T05:26:00.430Z,328.00
2022-08-26T05:27:00.096Z,332.00
2022-08-26T05:28:00.071Z,332.00
2022-08-26T05:29:00.002Z,332.00
2022-08-26T05:29:59.987Z,336.00
2022-08-26T05:31:00.116Z,336.00
2022-08-26T05:31:59.990Z,340.00
2022-08-26T05:32:59.996Z,344.00
2022-08-26T05:34:00.019Z,344.00
2022-08-26T05:34:59.940Z,360.00
2022-08-26T05:35:59.914Z,368.00
2022-08-26T05:36:59.928Z,368.00
2022-08-26T05:37:59.935Z,372.00
2022-08-26T05:38:59.898Z,384.00
2022-08-26T05:39:59.948Z,392.00
2022-08-26T05:40:59.905Z,396.00
2022-08-26T05:41:59.883Z,408.00
2022-08-26T05:42:59.842Z,428.00
2022-08-26T05:43:59.883Z,440.00
2022-08-26T05:44:59.839Z,456.00
2022-08-26T05:45:59.931Z,480.00
2022-08-26T05:46:59.786Z,512.00
2022-08-26T05:47:59.807Z,532.00
2022-08-26T05:48:59.797Z,536.00
2022-08-26T05:49:59.792Z,548.00
2022-08-26T05:50:59.856Z,556.00
2022-08-26T05:51:59.763Z,560.00
2022-08-26T05:52:59.730Z,556.00
2022-08-26T05:53:59.729Z,568.00
2022-08-26T05:54:59.706Z,564.00
2022-08-26T05:55:59.711Z,560.00
2022-08-26T05:56:59.708Z,540.00
2022-08-26T05:57:59.678Z,520.00
2022-08-26T05:58:59.875Z,516.00
2022-08-26T05:59:59.664Z,528.00
2022-08-26T06:00:59.660Z,528.00
2022-08-26T06:01:59.730Z,520.00
2022-08-26T06:02:59.804Z,508.00
2022-08-26T06:04:01.454Z,480.00
2022-08-26T06:04:59.600Z,480.00
2022-08-26T06:05:59.613Z,476.00
2022-08-26T06:06:59.595Z,484.00
2022-08-26T06:07:59.562Z,488.00
2022-08-26T06:08:59.582Z,492.00
2022-08-26T06:10:21.614Z,500.00
2022-08-26T06:10:59.528Z,504.00
2022-08-26T06:11:59.521Z,508.00
2022-08-26T06:13:02.242Z,508.00
2022-08-26T06:14:03.565Z,512.00
2022-08-26T06:14:59.492Z,516.00
2022-08-26T06:15:59.555Z,516.00
2022-08-26T06:16:59.458Z,520.00
2022-08-26T06:17:59.454Z,528.00
2022-08-26T06:18:59.455Z,532.00
2022-08-26T06:19:59.448Z,532.00
2022-08-26T06:20:59.429Z,536.00
2022-08-26T06:21:59.436Z,532.00
2022-08-26T06:22:59.480Z,536.00
2022-08-26T06:23:59.400Z,544.00
2022-08-26T06:24:59.404Z,548.00
2022-08-26T06:25:59.362Z,548.00
2022-08-26T06:26:59.378Z,508.00
2022-08-26T06:27:59.352Z,524.00
2022-08-26T06:28:59.338Z,556.00
2022-08-26T06:29:59.347Z,556.00
2022-08-26T06:30:59.337Z,560.00
2022-08-26T06:31:59.313Z,500.00
2022-08-26T06:32:59.287Z,560.00
2022-08-26T06:33:59.300Z,572.00
2022-08-26T06:34:59.277Z,468.00
2022-08-26T06:35:59.307Z,476.00
2022-08-26T06:36:59.248Z,592.00
2022-08-26T06:37:59.234Z,596.00
2022-08-26T06:38:59.226Z,596.00
2022-08-26T06:39:59.279Z,600.00
2022-08-26T06:40:59.846Z,608.00
2022-08-26T06:41:59.332Z,604.00
2022-08-26T06:42:59.186Z,612.00
2022-08-26T06:43:59.183Z,612.00
2022-08-26T06:44:59.203Z,612.00
2022-08-26T06:45:59.199Z,612.00
2022-08-26T06:46:59.142Z,620.00
2022-08-26T06:47:59.149Z,628.00
2022-08-26T06:48:59.506Z,632.00
2022-08-26T06:49:59.127Z,644.00
2022-08-26T06:50:59.107Z,652.00
2022-08-26T06:51:59.195Z,684.00
2022-08-26T06:52:59.080Z,684.00
2022-08-26T06:53:59.069Z,688.00
2022-08-26T06:54:59.164Z,684.00
2022-08-26T06:55:59.049Z,692.00
2022-08-26T06:56:59.031Z,692.00
2022-08-26T06:57:59.021Z,692.00
2022-08-26T06:58:59.022Z,692.00
2022-08-26T06:59:59.130Z,692.00
2022-08-26T07:01:03.111Z,700.00
2022-08-26T07:01:59.114Z,708.00
2022-08-26T07:02:59.039Z,716.00
2022-08-26T07:03:58.952Z,716.00
2022-08-26T07:04:58.939Z,608.00
2022-08-26T07:05:58.962Z,720.00
2022-08-26T07:06:58.920Z,716.00
2022-08-26T07:07:58.925Z,712.00
2022-08-26T07:08:58.903Z,732.00
2022-08-26T07:09:58.892Z,740.00
2022-08-26T07:10:58.912Z,740.00
2022-08-26T07:11:58.892Z,748.00
2022-08-26T07:12:58.859Z,744.00
2022-08-26T07:13:58.845Z,756.00
2022-08-26T07:14:58.823Z,760.00
2022-08-26T07:15:58.844Z,772.00
2022-08-26T07:16:58.838Z,776.00
2022-08-26T07:17:58.842Z,780.00
2022-08-26T07:18:58.790Z,788.00
2022-08-26T07:19:58.777Z,796.00
2022-08-26T07:20:58.762Z,792.00
2022-08-26T07:21:58.765Z,796.00
2022-08-26T07:22:58.805Z,796.00
2022-08-26T07:24:01.638Z,800.00
2022-08-26T07:24:58.726Z,804.00
2022-08-26T07:25:58.764Z,804.00
2022-08-26T07:26:58.703Z,812.00
2022-08-26T07:27:58.725Z,820.00
2022-08-26T07:28:59.413Z,828.00
2022-08-26T07:29:58.739Z,836.00
2022-08-26T07:30:58.677Z,840.00
2022-08-26T07:31:58.651Z,844.00
2022-08-26T07:32:58.642Z,848.00
2022-08-26T07:33:58.658Z,856.00
2022-08-26T07:34:58.645Z,864.00
2022-08-26T07:35:58.622Z,860.00
2022-08-26T07:36:58.845Z,860.00
2022-08-26T07:37:58.623Z,868.00
2022-08-26T07:38:58.580Z,868.00
2022-08-26T07:39:58.623Z,876.00
2022-08-26T07:40:58.853Z,888.00
2022-08-26T07:41:58.538Z,888.00
2022-08-26T07:42:58.527Z,892.00
2022-08-26T07:43:58.521Z,892.00
2022-08-26T07:44:58.516Z,896.00
2022-08-26T07:45:58.539Z,896.00
2022-08-26T07:46:58.536Z,904.00
2022-08-26T07:47:58.520Z,872.00
2022-08-26T07:48:58.461Z,800.00
2022-08-26T07:49:58.455Z,704.00
2022-08-26T07:50:58.440Z,820.00
2022-08-26T07:51:58.451Z,724.00
2022-08-26T07:52:58.486Z,716.00
2022-08-26T07:53:58.507Z,712.00
2022-08-26T07:54:58.457Z,772.00
2022-08-26T07:55:58.434Z,704.00
2022-08-26T07:56:58.386Z,788.00
2022-08-26T07:57:58.390Z,708.00
2022-08-26T07:58:58.359Z,860.00
2022-08-26T07:59:58.359Z,924.00
2022-08-26T08:00:58.333Z,800.00
2022-08-26T08:01:58.359Z,912.00
2022-08-26T08:02:58.342Z,720.00
2022-08-26T08:03:58.343Z,820.00
2022-08-26T08:04:58.544Z,740.00
2022-08-26T08:05:58.325Z,740.00
2022-08-26T08:06:58.274Z,800.00
2022-08-26T08:08:26.960Z,800.00
2022-08-26T08:08:58.280Z,740.00
2022-08-26T08:09:58.233Z,740.00
2022-08-26T08:10:58.235Z,760.00
2022-08-26T08:11:58.224Z,808.00
2022-08-26T08:12:58.221Z,708.00
2022-08-26T08:13:58.205Z,736.00
2022-08-26T08:14:58.183Z,940.00
2022-08-26T08:15:58.179Z,760.00
2022-08-26T08:16:58.275Z,964.00
2022-08-26T08:18:00.681Z,784.00
2022-08-26T08:18:58.162Z,788.00
2022-08-26T08:19:58.135Z,888.00
2022-08-26T08:21:10.778Z,764.00
2022-08-26T08:21:58.128Z,908.00
2022-08-26T08:22:58.106Z,740.00
2022-08-26T08:23:58.098Z,760.00
2022-08-26T08:24:58.103Z,784.00
2022-08-26T08:25:58.161Z,808.00
2022-08-26T08:26:58.067Z,948.00
2022-08-26T08:27:58.037Z,900.00
2022-08-26T08:28:58.079Z,988.00
2022-08-26T08:29:58.035Z,1036.00
2022-08-26T08:30:58.081Z,972.00
2022-08-26T08:31:58.765Z,1068.00
2022-08-26T08:32:58.018Z,948.00
2022-08-26T08:33:57.981Z,948.00
2022-08-26T08:34:58.008Z,1092.00
2022-08-26T08:35:57.975Z,1112.00
2022-08-26T08:36:57.944Z,1136.00
2022-08-26T08:37:58.002Z,1168.00
2022-08-26T08:38:57.930Z,1164.00
2022-08-26T08:39:58.002Z,1176.00
2022-08-26T08:40:57.923Z,1184.00
2022-08-26T08:41:57.930Z,1192.00
2022-08-26T08:42:57.898Z,1200.00
2022-08-26T08:43:57.873Z,1268.00
2022-08-26T08:44:57.872Z,1296.00
2022-08-26T08:45:57.936Z,1256.00
2022-08-26T08:46:57.873Z,1216.00
2022-08-26T08:47:57.858Z,1176.00
2022-08-26T08:48:57.814Z,1112.00
2022-08-26T08:49:57.803Z,1092.00
2022-08-26T08:50:57.800Z,1012.00
2022-08-26T08:51:57.829Z,980.00
2022-08-26T08:52:57.796Z,984.00
2022-08-26T08:53:57.782Z,1016.00
2022-08-26T08:54:57.760Z,1064.00
2022-08-26T08:55:57.740Z,1144.00
2022-08-26T08:56:57.749Z,1128.00
2022-08-26T08:58:02.006Z,1136.00
2022-08-26T08:58:57.716Z,1108.00
2022-08-26T08:59:57.707Z,1088.00
2022-08-26T09:00:57.775Z,1036.00
2022-08-26T09:01:57.720Z,1000.00
2022-08-26T09:02:57.689Z,992.00
2022-08-26T09:03:57.676Z,1008.00
2022-08-26T09:04:57.638Z,1036.00
2022-08-26T09:05:57.642Z,1048.00
2022-08-26T09:07:57.642Z,1096.00
2022-08-26T09:08:57.605Z,1160.00
2022-08-26T09:09:57.626Z,1232.00
2022-08-26T09:10:57.619Z,1320.00
2022-08-26T09:11:57.567Z,1332.00
2022-08-26T09:12:57.557Z,1320.00
2022-08-26T09:13:57.539Z,1316.00
2022-08-26T09:14:57.547Z,1316.00
2022-08-26T09:15:57.536Z,1312.00
2022-08-26T09:16:57.576Z,1312.00
2022-08-26T09:17:57.503Z,1308.00
2022-08-26T09:18:57.490Z,1344.00
2022-08-26T09:19:57.556Z,1420.00
2022-08-26T09:20:57.527Z,1452.00
2022-08-26T09:21:57.462Z,1544.00
2022-08-26T09:22:57.457Z,1668.00
2022-08-26T09:23:57.442Z,1784.00
2022-08-26T09:24:57.426Z,1840.00
2022-08-26T09:25:57.454Z,1832.00
2022-08-26T09:26:57.404Z,1860.00
2022-08-26T09:27:58.010Z,1892.00
2022-08-26T09:28:57.406Z,1900.00
2022-08-26T09:29:57.393Z,1920.00
2022-08-26T09:30:57.402Z,1908.00
2022-08-26T09:31:57.361Z,1924.00
2022-08-26T09:32:57.736Z,1952.00
2022-08-26T09:33:57.759Z,1980.00
2022-08-26T09:34:57.335Z,1996.00
2022-08-26T09:35:57.304Z,2020.00
2022-08-26T09:36:57.316Z,2056.00
2022-08-26T09:37:57.296Z,2080.00
2022-08-26T09:38:57.314Z,2108.00
2022-08-26T09:39:57.288Z,2140.00
2022-08-26T09:40:59.389Z,2204.00
2022-08-26T09:41:57.245Z,2240.00
2022-08-26T09:42:57.260Z,2208.00
2022-08-26T09:43:57.232Z,1980.00
2022-08-26T09:44:57.238Z,1872.00
2022-08-26T09:45:59.478Z,1884.00
2022-08-26T09:46:57.198Z,1800.00
2022-08-26T09:47:57.189Z,1796.00
2022-08-26T09:48:57.199Z,1804.00
2022-08-26T09:49:57.181Z,1828.00
2022-08-26T09:50:57.158Z,1828.00
2022-08-26T09:51:57.149Z,1868.00
2022-08-26T09:52:57.125Z,1776.00
2022-08-26T09:53:57.119Z,1760.00
2022-08-26T09:54:57.134Z,1800.00
2022-08-26T09:55:57.116Z,1816.00
2022-08-26T09:56:57.090Z,1848.00
2022-08-26T09:57:59.927Z,1828.00
2022-08-26T09:58:57.074Z,1784.00
2022-08-26T09:59:57.057Z,1744.00
2022-08-26T10:00:57.111Z,1592.00
2022-08-26T10:01:57.136Z,1416.00
2022-08-26T10:02:58.162Z,1396.00
2022-08-26T10:03:57.044Z,1456.00
2022-08-26T10:04:57.040Z,1420.00
2022-08-26T10:05:56.987Z,1548.00
2022-08-26T10:06:57.003Z,1552.00
2022-08-26T10:07:56.968Z,1656.00
2022-08-26T10:08:56.982Z,1676.00
2022-08-26T10:09:56.944Z,1696.00
2022-08-26T10:10:56.938Z,1640.00
2022-08-26T10:11:56.918Z,1724.00
2022-08-26T10:12:56.918Z,1836.00
2022-08-26T10:13:56.919Z,1848.00
2022-08-26T10:14:56.981Z,1896.00
2022-08-26T10:15:56.878Z,1824.00
2022-08-26T10:16:56.938Z,1804.00
2022-08-26T10:17:56.872Z,1704.00
2022-08-26T10:19:00.030Z,1624.00
2022-08-26T10:19:57.846Z,1800.00
2022-08-26T10:20:56.828Z,1664.00
2022-08-26T10:21:56.818Z,1840.00
2022-08-26T10:22:56.804Z,1860.00
2022-08-26T10:23:56.798Z,1684.00
2022-08-26T10:24:56.831Z,1664.00
2022-08-26T10:25:59.070Z,1796.00
2022-08-26T10:26:56.807Z,1788.00
2022-08-26T10:27:56.751Z,1632.00
2022-08-26T10:28:56.744Z,1600.00
2022-08-26T10:29:56.728Z,1620.00
2022-08-26T10:30:56.747Z,1636.00
2022-08-26T10:32:02.533Z,1648.00
2022-08-26T10:32:56.705Z,1668.00
2022-08-26T10:34:00.069Z,1656.00
2022-08-26T10:34:56.681Z,1644.00
2022-08-26T10:35:56.681Z,1648.00
2022-08-26T10:37:14.629Z,1708.00
2022-08-26T10:37:56.680Z,1780.00
2022-08-26T10:38:56.635Z,1832.00
2022-08-26T10:39:58.623Z,1868.00
2022-08-26T10:40:56.628Z,1868.00
2022-08-26T10:41:56.607Z,1868.00
2022-08-26T10:42:56.601Z,1864.00
2022-08-26T10:43:56.586Z,1860.00
2022-08-26T10:44:58.415Z,1884.00
2022-08-26T10:45:56.586Z,1940.00
2022-08-26T10:46:56.554Z,2020.00
2022-08-26T10:47:56.545Z,2128.00
2022-08-26T10:48:56.531Z,2232.00
2022-08-26T10:50:00.449Z,2320.00
2022-08-26T10:50:56.521Z,2396.00
2022-08-26T10:51:56.506Z,2476.00
2022-08-26T10:52:56.499Z,2588.00
2022-08-26T10:53:56.488Z,2736.00
2022-08-26T10:54:56.468Z,2816.00
2022-08-26T10:55:56.462Z,2908.00
2022-08-26T10:56:56.471Z,2924.00
2022-08-26T10:57:56.442Z,2956.00
2022-08-26T10:58:56.440Z,2972.00
2022-08-26T10:59:56.421Z,3356.00
2022-08-26T11:00:56.442Z,2960.00
2022-08-26T11:01:56.395Z,2868.00
2022-08-26T11:02:56.381Z,2820.00
2022-08-26T11:03:57.840Z,2724.00
2022-08-26T11:04:56.417Z,2712.00
2022-08-26T11:05:56.358Z,2700.00
2022-08-26T11:06:56.376Z,2668.00
2022-08-26T11:07:56.332Z,2644.00
2022-08-26T11:08:56.320Z,2580.00
2022-08-26T11:09:56.313Z,2520.00
2022-08-26T11:10:56.306Z,2456.00
2022-08-26T11:11:56.306Z,2392.00
2022-08-26T11:12:56.300Z,2324.00
2022-08-26T11:13:56.272Z,2236.00
2022-08-26T11:14:59.090Z,2168.00
2022-08-26T11:15:56.258Z,2132.00
2022-08-26T11:16:56.308Z,2160.00
2022-08-26T11:17:56.224Z,2272.00
2022-08-26T11:18:56.205Z,2368.00
2022-08-26T11:20:01.597Z,2416.00
2022-08-26T11:20:56.232Z,2460.00
2022-08-26T11:21:56.197Z,2512.00
2022-08-26T11:22:56.166Z,2560.00
2022-08-26T11:23:56.165Z,2592.00
2022-08-26T11:24:56.148Z,2580.00
2022-08-26T11:25:56.146Z,2556.00
2022-08-26T11:26:56.748Z,2532.00
2022-08-26T11:27:56.129Z,2504.00
2022-08-26T11:28:56.096Z,2420.00
2022-08-26T11:29:56.091Z,2260.00
2022-08-26T11:30:58.218Z,2144.00
2022-08-26T11:31:56.191Z,2096.00
2022-08-26T11:32:56.104Z,2096.00
2022-08-26T11:33:56.067Z,2096.00
2022-08-26T11:34:56.408Z,2076.00
2022-08-26T11:35:56.032Z,2020.00
2022-08-26T11:36:56.022Z,1928.00
2022-08-26T11:37:56.080Z,1768.00
2022-08-26T11:38:56.006Z,1512.00
2022-08-26T11:39:57.162Z,1272.00
2022-08-26T11:40:55.973Z,1148.00
2022-08-26T11:41:55.978Z,1096.00
2022-08-26T11:42:55.961Z,1052.00
2022-08-26T11:43:55.977Z,1068.00
2022-08-26T11:44:57.925Z,1068.00
2022-08-26T11:45:55.990Z,1008.00
2022-08-26T11:46:55.932Z,888.00
2022-08-26T11:47:55.909Z,748.00
2022-08-26T11:48:55.900Z,640.00
2022-08-26T11:49:55.904Z,628.00
2022-08-26T11:50:55.918Z,660.00
2022-08-26T11:51:55.883Z,660.00
2022-08-26T11:52:55.841Z,720.00
2022-08-26T11:53:55.855Z,852.00
2022-08-26T11:54:55.835Z,1088.00
2022-08-26T11:55:55.867Z,1300.00
2022-08-26T11:56:55.792Z,1404.00
2022-08-26T11:57:55.809Z,1412.00
2022-08-26T11:58:55.774Z,1300.00
2022-08-26T11:59:55.788Z,1296.00
2022-08-26T12:00:55.785Z,1328.00
2022-08-26T12:01:55.760Z,1272.00
2022-08-26T12:02:55.767Z,1136.00
2022-08-26T12:03:55.833Z,956.00
2022-08-26T12:04:55.724Z,948.00
2022-08-26T12:05:55.770Z,1076.00
2022-08-26T12:06:55.702Z,1292.00
2022-08-26T12:07:55.683Z,1460.00
2022-08-26T12:08:55.677Z,1616.00
2022-08-26T12:09:56.389Z,1828.00
2022-08-26T12:10:55.661Z,1948.00
2022-08-26T12:11:58.109Z,2028.00
2022-08-26T12:12:55.632Z,2076.00
2022-08-26T12:13:55.653Z,2088.00
2022-08-26T12:14:55.606Z,2036.00
2022-08-26T12:15:55.836Z,1932.00
2022-08-26T12:16:55.612Z,1860.00
2022-08-26T12:17:55.583Z,1796.00
2022-08-26T12:18:55.568Z,1624.00
2022-08-26T12:19:55.580Z,1424.00
2022-08-26T12:20:55.545Z,1272.00
2022-08-26T12:21:55.577Z,1296.00
2022-08-26T12:22:55.524Z,1252.00
2022-08-26T12:23:55.512Z,1232.00
2022-08-26T12:24:55.504Z,1204.00
2022-08-26T12:25:55.517Z,1112.00
2022-08-26T12:26:55.506Z,988.00
2022-08-26T12:27:55.475Z,932.00
2022-08-26T12:28:55.473Z,968.00
2022-08-26T12:29:55.452Z,1016.00
2022-08-26T12:30:55.448Z,1044.00
2022-08-26T12:31:55.478Z,1052.00
2022-08-26T12:32:58.006Z,1052.00
2022-08-26T12:33:55.403Z,1012.00
2022-08-26T12:34:55.459Z,984.00
2022-08-26T12:35:56.289Z,940.00
2022-08-26T12:36:55.451Z,892.00
2022-08-26T12:37:55.365Z,876.00